Accueil
METAR-TAF:

METAR-TAF

Aéroports :

Exeter, Angleterre

Aéroport international d'Exeter

latitude: 50-44N, longitude: 003-25W, altitude: 30 m

Observation

Le bulletin a été fait il y a 40 minutes, à 05:50 UTC
Vent calme
Température -3°C
Humidité 93%
Pression 1007 hPa
Visibilité 10 km ou plus
pas de nuages en-dessous de 1500 mètres et pas de cumulonimbus.

METAR: EGTE 120550Z 00000KT CAVOK M03/M04 Q1007

Heure: 06:30 (06:30 UTC)

Prévision

Le bulletin a été fait il y a 7 heures et 32 minutes, à 22:58 UTC
Prévision valable du 12 à 00 UTC au 12 à 02 UTC
Vent 3 kt de ouest
Visibilité 10 km ou plus
Quelques nuages à une hauteur de 4500 ft
Probabilité 30%
du 12 à 00 UTC au 12 à 02 UTC
Visibilité: 0300 m
brouillard givrant

TAF: EGTE 112258Z 1200/1202 28003KT 9999 FEW045 PROB30 1200/1202 0300 FZFG VV///

Observations et prévisions météorologiques de plus de 4000 aéroports (messages METAR et TAF).

Les stations disponibles sont représentées par des disques jaunes et rouges sur la carte.

Passer la souris dessus pour voir le nom de la station.

Cliquer dessus pour voir les observations et prévisions météorologiques.

Pour changer de carte: cliquez sur les boutons verts avec une croix noire pour zoomer, sur le bouton vert avec un tiret pour effectuer un zoom arrière, ou sur les flèches vertes pour les cartes adjacentes.


METAR-TAF: